METAR AND TAF INFORMATION
METAR FOR KORS
ADDS - METARS form results

(2039 UTC 16 October 2019)
Data provider http://aviationweather.gov/metar/data/
 
METAR text: KORS 162035Z AUTO 14014G26KT 10SM OVC021 14/10 A2960 RMK AO2
Conditions at: KORS (EASTSOUND/ORCAS , WA, US) observed 2035 UTC 16 October 2019
Temperature: 14.0°C (57°F)
Dewpoint: 10.0°C (50°F) [RH = 77%]
Pressure (altimeter): 29.60 inches Hg (1002.5 mb)
Winds: from the SE (140 degrees) at 16 MPH (14 knots; 7.2 m/s)
gusting to 30 MPH (26 knots; 13.4 m/s)
Visibility: 10 or more miles (16+ km)
Ceiling: 2100 feet AGL
Clouds: overcast cloud deck at 2100 feet AGL
Weather: automated observation with no human augmentation;
there may or may not be significant weather present at this time

METAR text: KORS 162015Z AUTO 13016G24KT 10SM OVC020 14/10 A2960 RMK AO2
Conditions at: KORS (EASTSOUND/ORCAS , WA, US) observed 2015 UTC 16 October 2019
Temperature: 14.0°C (57°F)
Dewpoint: 10.0°C (50°F) [RH = 77%]
Pressure (altimeter): 29.60 inches Hg (1002.5 mb)
Winds: from the SE (130 degrees) at 18 MPH (16 knots; 8.2 m/s)
gusting to 28 MPH (24 knots; 12.3 m/s)
Visibility: 10 or more miles (16+ km)
Ceiling: 2000 feet AGL
Clouds: overcast cloud deck at 2000 feet AGL
Weather: automated observation with no human augmentation;
there may or may not be significant weather present at this time

METAR text: KORS 161955Z AUTO 14016G22KT 10SM OVC021 14/10 A2960 RMK AO2
Conditions at: KORS (EASTSOUND/ORCAS , WA, US) observed 1955 UTC 16 October 2019
Temperature: 14.0°C (57°F)
Dewpoint: 10.0°C (50°F) [RH = 77%]
Pressure (altimeter): 29.60 inches Hg (1002.5 mb)
Winds: from the SE (140 degrees) at 18 MPH (16 knots; 8.2 m/s)
gusting to 25 MPH (22 knots; 11.3 m/s)
Visibility: 10 or more miles (16+ km)
Ceiling: 2100 feet AGL
Clouds: overcast cloud deck at 2100 feet AGL
Weather: automated observation with no human augmentation;
there may or may not be significant weather present at this time

 AIRPORT MAP

 RUNWAY INFORMATION
Runway 16 Runway length 2900 ft Runway width 60 ft
Runway elevation 31 ft Runway displaced threshold 0 ft Runway heading 0
Runway 34 Runway length 2900 ft Runway width 60 ft
Runway elevation 31 ft Runway displaced threshold 0 ft Runway heading 0

 AIRPORT FREQUENCIES

 AIRPORT NEAR NAVIGATION AIDS



Powered by Virtual Airlines Manager [v2.6.2]

Impressum | Datenschutz